sensor_id;sensor_type;location;lat;lon;timestamp;pressure;altitude;pressure_sealevel;temperature;humidity
70206;BME280;57593;55.896;37.396;2022-12-31T00:00:05;98828.94;;;3.57;100.00
70206;BME280;57593;55.896;37.396;2022-12-31T00:00:37;98831.56;;;3.57;100.00
70206;BME280;57593;55.896;37.396;2022-12-31T00:01:10;98828.47;;;3.55;100.00
70206;BME280;57593;55.896;37.396;2022-12-31T00:01:41;98835.41;;;3.60;100.00
70206;BME280;57593;55.896;37.396;2022-12-31T00:02:12;98827.69;;;3.55;100.00
70206;BME280;57593;55.896;37.396;2022-12-31T00:02:42;98824.13;;;3.51;100.00
70206;BME280;57593;55.896;37.396;2022-12-31T00:03:13;98816.41;;;3.46;100.00
70206;BME280;57593;55.896;37.396;2022-12-31T00:03:44;98819.41;;;3.39;100.00
70206;BME280;57593;55.896;37.396;2022-12-31T00:04:15;98824.19;;;3.37;100.00
70206;BME280;57593;55.896;37.396;2022-12-31T00:04:45;98825.22;;;3.36;100.00
70206;BME280;57593;55.896;37.396;2022-12-31T00:05:19;98829.94;;;3.48;100.00
70206;BME280;57593;55.896;37.396;2022-12-31T00:05:49;98823.53;;;3.54;100.00
70206;BME280;57593;55.896;37.396;2022-12-31T00:06:29;98823.59;;;3.63;100.00
70206;BME280;57593;55.896;37.396;2022-12-31T00:06:59;98823.00;;;3.66;100.00
70206;BME280;57593;55.896;37.396;2022-12-31T00:07:35;98822.34;;;3.60;100.00
70206;BME280;57593;55.896;37.396;2022-12-31T00:08:06;98822.94;;;3.57;100.00
70206;BME280;57593;55.896;37.396;2022-12-31T00:08:37;98818.50;;;3.57;100.00
70206;BME280;57593;55.896;37.396;2022-12-31T00:09:08;98818.72;;;3.47;100.00
70206;BME280;57593;55.896;37.396;2022-12-31T00:09:39;98826.06;;;3.45;100.00
70206;BME280;57593;55.896;37.396;2022-12-31T00:10:10;98829.53;;;3.54;100.00
70206;BME280;57593;55.896;37.396;2022-12-31T00:10:44;98820.13;;;3.53;100.00
70206;BME280;57593;55.896;37.396;2022-12-31T00:11:15;98809.53;;;3.50;100.00
70206;BME280;57593;55.896;37.396;2022-12-31T00:11:46;98812.31;;;3.53;100.00
70206;BME280;57593;55.896;37.396;2022-12-31T00:12:16;98814.03;;;3.58;100.00
70206;BME280;57593;55.896;37.396;2022-12-31T00:12:47;98807.09;;;3.53;100.00
70206;BME280;57593;55.896;37.396;2022-12-31T00:13:20;98810.13;;;3.47;100.00
70206;BME280;57593;55.896;37.396;2022-12-31T00:13:52;98817.81;;;3.52;100.00
70206;BME280;57593;55.896;37.396;2022-12-31T00:14:22;98815.22;;;3.52;100.00
70206;BME280;57593;55.896;37.396;2022-12-31T00:14:53;98820.25;;;3.48;100.00
70206;BME280;57593;55.896;37.396;2022-12-31T00:15:24;98810.59;;;3.49;100.00
70206;BME280;57593;55.896;37.396;2022-12-31T00:15:54;98812.44;;;3.48;100.00
70206;BME280;57593;55.896;37.396;2022-12-31T00:16:28;98804.47;;;3.53;100.00
70206;BME280;57593;55.896;37.396;2022-12-31T00:16:58;98816.00;;;3.52;100.00
70206;BME280;57593;55.896;37.396;2022-12-31T00:17:29;98808.75;;;3.49;100.00
70206;BME280;57593;55.896;37.396;2022-12-31T00:18:00;98805.84;;;3.51;100.00
70206;BME280;57593;55.896;37.396;2022-12-31T00:18:30;98809.09;;;3.56;100.00
70206;BME280;57593;55.896;37.396;2022-12-31T00:19:02;98804.31;;;3.50;100.00
70206;BME280;57593;55.896;37.396;2022-12-31T00:19:33;98804.19;;;3.55;100.00
70206;BME280;57593;55.896;37.396;2022-12-31T00:20:04;98805.72;;;3.56;100.00
70206;BME280;57593;55.896;37.396;2022-12-31T00:20:39;98806.69;;;3.60;100.00
70206;BME280;57593;55.896;37.396;2022-12-31T00:21:12;98812.22;;;3.58;100.00
70206;BME280;57593;55.896;37.396;2022-12-31T00:21:45;98806.56;;;3.65;100.00
70206;BME280;57593;55.896;37.396;2022-12-31T00:22:16;98806.69;;;3.60;100.00
70206;BME280;57593;55.896;37.396;2022-12-31T00:22:47;98808.63;;;3.54;100.00
70206;BME280;57593;55.896;37.396;2022-12-31T00:23:17;98809.41;;;3.55;100.00
70206;BME280;57593;55.896;37.396;2022-12-31T00:23:48;98801.88;;;3.53;100.00
70206;BME280;57593;55.896;37.396;2022-12-31T00:24:18;98800.94;;;3.49;100.00
70206;BME280;57593;55.896;37.396;2022-12-31T00:24:49;98801.88;;;3.53;100.00
70206;BME280;57593;55.896;37.396;2022-12-31T00:25:20;98802.81;;;3.57;100.00
70206;BME280;57593;55.896;37.396;2022-12-31T00:25:51;98809.59;;;3.58;100.00
70206;BME280;57593;55.896;37.396;2022-12-31T00:26:26;98813.16;;;3.63;100.00
70206;BME280;57593;55.896;37.396;2022-12-31T00:26:57;98806.78;;;3.55;100.00
70206;BME280;57593;55.896;37.396;2022-12-31T00:27:31;98803.28;;;3.59;100.00
70206;BME280;57593;55.896;37.396;2022-12-31T00:28:03;98807.47;;;3.60;100.00
70206;BME280;57593;55.896;37.396;2022-12-31T00:28:35;98806.88;;;3.64;100.00
70206;BME280;57593;55.896;37.396;2022-12-31T00:29:06;98804.13;;;3.69;100.00
70206;BME280;57593;55.896;37.396;2022-12-31T00:29:37;98810.06;;;3.60;100.00
70206;BME280;57593;55.896;37.396;2022-12-31T00:30:08;98804.88;;;3.69;100.00
70206;BME280;57593;55.896;37.396;2022-12-31T00:30:38;98801.81;;;3.67;100.00
70206;BME280;57593;55.896;37.396;2022-12-31T00:31:10;98801.47;;;3.60;100.00
70206;BME280;57593;55.896;37.396;2022-12-31T00:31:44;98811.91;;;3.60;100.00
70206;BME280;57593;55.896;37.396;2022-12-31T00:32:15;98802.59;;;3.68;100.00
70206;BME280;57593;55.896;37.396;2022-12-31T00:32:46;98807.63;;;3.64;100.00
70206;BME280;57593;55.896;37.396;2022-12-31T00:33:16;98798.84;;;3.60;100.00
70206;BME280;57593;55.896;37.396;2022-12-31T00:33:48;98801.09;;;3.53;100.00
70206;BME280;57593;55.896;37.396;2022-12-31T00:34:19;98804.41;;;3.67;100.00
70206;BME280;57593;55.896;37.396;2022-12-31T00:34:50;98798.44;;;3.67;100.00
70206;BME280;57593;55.896;37.396;2022-12-31T00:35:20;98797.00;;;3.60;100.00
70206;BME280;57593;55.896;37.396;2022-12-31T00:35:51;98802.69;;;3.63;100.00
70206;BME280;57593;55.896;37.396;2022-12-31T00:36:24;98799.09;;;3.50;100.00
70206;BME280;57593;55.896;37.396;2022-12-31T00:36:55;98798.78;;;3.51;100.00
70206;BME280;57593;55.896;37.396;2022-12-31T00:37:26;98800.63;;;3.51;100.00
70206;BME280;57593;55.896;37.396;2022-12-31T00:37:56;98797.91;;;3.56;100.00
70206;BME280;57593;55.896;37.396;2022-12-31T00:38:27;98796.84;;;3.57;100.00
70206;BME280;57593;55.896;37.396;2022-12-31T00:38:59;98803.25;;;3.51;100.00
70206;BME280;57593;55.896;37.396;2022-12-31T00:39:30;98803.53;;;3.49;100.00
70206;BME280;57593;55.896;37.396;2022-12-31T00:40:00;98799.25;;;3.53;100.00
70206;BME280;57593;55.896;37.396;2022-12-31T00:40:31;98803.41;;;3.54;100.00
70206;BME280;57593;55.896;37.396;2022-12-31T00:41:02;98796.00;;;3.48;100.00
70206;BME280;57593;55.896;37.396;2022-12-31T00:41:34;98797.81;;;3.47;100.00
70206;BME280;57593;55.896;37.396;2022-12-31T00:42:05;98794.16;;;3.48;100.00
70206;BME280;57593;55.896;37.396;2022-12-31T00:42:35;98793.56;;;3.51;100.00
70206;BME280;57593;55.896;37.396;2022-12-31T00:43:06;98804.31;;;3.50;100.00
70206;BME280;57593;55.896;37.396;2022-12-31T00:43:37;98801.28;;;3.56;100.00
70206;BME280;57593;55.896;37.396;2022-12-31T00:44:10;98795.72;;;3.49;100.00
70206;BME280;57593;55.896;37.396;2022-12-31T00:44:41;98801.81;;;3.45;100.00
70206;BME280;57593;55.896;37.396;2022-12-31T00:45:11;98802.56;;;3.45;100.00
70206;BME280;57593;55.896;37.396;2022-12-31T00:45:43;98795.22;;;3.47;100.00
70206;BME280;57593;55.896;37.396;2022-12-31T00:46:17;98797.34;;;3.45;100.00
70206;BME280;57593;55.896;37.396;2022-12-31T00:46:48;98798.41;;;3.44;100.00
70206;BME280;57593;55.896;37.396;2022-12-31T00:47:19;98800.84;;;3.40;100.00
70206;BME280;57593;55.896;37.396;2022-12-31T00:47:49;98790.13;;;3.42;100.00
70206;BME280;57593;55.896;37.396;2022-12-31T00:48:20;98803.28;;;3.37;100.00
70206;BME280;57593;55.896;37.396;2022-12-31T00:48:51;98796.22;;;3.37;100.00
70206;BME280;57593;55.896;37.396;2022-12-31T00:49:22;98797.56;;;3.35;100.00
70206;BME280;57593;55.896;37.396;2022-12-31T00:49:52;98798.84;;;3.37;100.00
70206;BME280;57593;55.896;37.396;2022-12-31T00:50:24;98799.97;;;3.45;100.00
70206;BME280;57593;55.896;37.396;2022-12-31T00:50:55;98797.53;;;3.49;100.00
70206;BME280;57593;55.896;37.396;2022-12-31T00:51:29;98793.97;;;3.45;100.00
70206;BME280;57593;55.896;37.396;2022-12-31T00:51:59;98798.31;;;3.49;100.00
70206;BME280;57593;55.896;37.396;2022-12-31T00:52:30;98794.31;;;3.52;100.00
70206;BME280;57593;55.896;37.396;2022-12-31T00:53:01;98795.81;;;3.44;100.00
70206;BME280;57593;55.896;37.396;2022-12-31T00:53:32;98802.09;;;3.43;100.00
70206;BME280;57593;55.896;37.396;2022-12-31T00:54:02;98798.72;;;3.42;100.00
70206;BME280;57593;55.896;37.396;2022-12-31T00:54:33;98796.31;;;3.46;100.00
70206;BME280;57593;55.896;37.396;2022-12-31T00:55:04;98798.31;;;3.49;100.00
70206;BME280;57593;55.896;37.396;2022-12-31T00:55:35;98797.13;;;3.55;100.00
70206;BME280;57593;55.896;37.396;2022-12-31T00:56:10;98799.75;;;3.55;100.00
70206;BME280;57593;55.896;37.396;2022-12-31T00:56:40;98791.91;;;3.55;100.00
70206;BME280;57593;55.896;37.396;2022-12-31T00:57:14;98802.66;;;3.54;100.00
70206;BME280;57593;55.896;37.396;2022-12-31T00:57:45;98798.50;;;3.53;100.00
70206;BME280;57593;55.896;37.396;2022-12-31T00:58:15;98802.28;;;3.47;100.00
70206;BME280;57593;55.896;37.396;2022-12-31T00:58:47;98798.03;;;3.51;100.00
70206;BME280;57593;55.896;37.396;2022-12-31T00:59:17;98794.91;;;3.49;100.00
70206;BME280;57593;55.896;37.396;2022-12-31T00:59:48;98796.31;;;3.46;100.00
70206;BME280;57593;55.896;37.396;2022-12-31T01:00:20;98794.56;;;3.41;100.00
70206;BME280;57593;55.896;37.396;2022-12-31T01:00:51;98799.66;;;3.47;100.00
70206;BME280;57593;55.896;37.396;2022-12-31T01:01:27;98797.22;;;3.50;100.00
70206;BME280;57593;55.896;37.396;2022-12-31T01:01:58;98792.22;;;3.54;100.00
70206;BME280;57593;55.896;37.396;2022-12-31T01:02:28;98789.59;;;3.54;100.00
70206;BME280;57593;55.896;37.396;2022-12-31T01:02:59;98794.16;;;3.48;100.00
70206;BME280;57593;55.896;37.396;2022-12-31T01:03:30;98798.97;;;3.55;100.00
70206;BME280;57593;55.896;37.396;2022-12-31T01:04:13;98803.50;;;3.63;100.00
70206;BME280;57593;55.896;37.396;2022-12-31T01:04:44;98798.84;;;3.60;100.00
70206;BME280;57593;55.896;37.396;2022-12-31T01:05:15;98800.81;;;3.54;100.00
70206;BME280;57593;55.896;37.396;2022-12-31T01:05:45;98803.94;;;3.65;100.00
70206;BME280;57593;55.896;37.396;2022-12-31T01:06:16;98801.97;;;3.71;100.00
70206;BME280;57593;55.896;37.396;2022-12-31T01:06:47;98800.09;;;3.63;100.00
70206;BME280;57593;55.896;37.396;2022-12-31T01:07:18;98796.84;;;3.57;100.00
70206;BME280;57593;55.896;37.396;2022-12-31T01:07:48;98799.25;;;3.53;100.00
70206;BME280;57593;55.896;37.396;2022-12-31T01:08:19;98794.75;;;3.45;100.00
70206;BME280;57593;55.896;37.396;2022-12-31T01:08:50;98792.91;;;3.46;100.00
70206;BME280;57593;55.896;37.396;2022-12-31T01:09:21;98789.59;;;3.54;100.00
70206;BME280;57593;55.896;37.396;2022-12-31T01:09:52;98793.84;;;3.50;100.00
70206;BME280;57593;55.896;37.396;2022-12-31T01:10:23;98796.75;;;3.48;100.00
70206;BME280;57593;55.896;37.396;2022-12-31T01:11:12;98792.13;;;3.45;100.00
70206;BME280;57593;55.896;37.396;2022-12-31T01:11:51;98796.09;;;3.42;100.00
70206;BME280;57593;55.896;37.396;2022-12-31T01:12:23;98797.81;;;3.47;100.00
70206;BME280;57593;55.896;37.396;2022-12-31T01:12:54;98794.75;;;3.45;100.00
70206;BME280;57593;55.896;37.396;2022-12-31T01:13:25;98799.75;;;3.55;100.00
70206;BME280;57593;55.896;37.396;2022-12-31T01:13:58;98796.63;;;3.53;100.00
70206;BME280;57593;55.896;37.396;2022-12-31T01:14:29;98797.22;;;3.50;100.00
70206;BME280;57593;55.896;37.396;2022-12-31T01:15:02;98792.00;;;3.50;100.00
70206;BME280;57593;55.896;37.396;2022-12-31T01:15:34;98791.41;;;3.53;100.00
70206;BME280;57593;55.896;37.396;2022-12-31T01:16:10;98792.25;;;3.40;100.00
70206;BME280;57593;55.896;37.396;2022-12-31T01:16:44;98797.94;;;3.42;100.00
70206;BME280;57593;55.896;37.396;2022-12-31T01:17:15;98792.13;;;3.45;100.00
70206;BME280;57593;55.896;37.396;2022-12-31T01:17:46;98796.31;;;3.46;100.00
70206;BME280;57593;55.896;37.396;2022-12-31T01:18:17;98794.16;;;3.48;100.00
70206;BME280;57593;55.896;37.396;2022-12-31T01:18:48;98791.25;;;3.50;100.00
70206;BME280;57593;55.896;37.396;2022-12-31T01:19:22;98794.75;;;3.45;100.00
70206;BME280;57593;55.896;37.396;2022-12-31T01:19:53;98798.91;;;3.46;100.00
70206;BME280;57593;55.896;37.396;2022-12-31T01:20:24;98797.19;;;3.41;100.00
70206;BME280;57593;55.896;37.396;2022-12-31T01:20:54;98790.88;;;3.42;100.00
70206;BME280;57593;55.896;37.396;2022-12-31T01:21:25;98801.31;;;3.42;100.00
70206;BME280;57593;55.896;37.396;2022-12-31T01:21:56;98795.34;;;3.42;100.00
70206;BME280;57593;55.896;37.396;2022-12-31T01:22:27;98798.31;;;3.49;100.00
70206;BME280;57593;55.896;37.396;2022-12-31T01:22:58;98799.38;;;3.48;100.00
70206;BME280;57593;55.896;37.396;2022-12-31T01:23:29;98792.97;;;3.54;100.00
70206;BME280;57593;55.896;37.396;2022-12-31T01:24:00;98793.72;;;3.55;100.00
70206;BME280;57593;55.896;37.396;2022-12-31T01:24:31;98802.66;;;3.54;100.00
70206;BME280;57593;55.896;37.396;2022-12-31T01:25:02;98798.25;;;3.63;100.00
70206;BME280;57593;55.896;37.396;2022-12-31T01:25:37;98797.97;;;3.65;100.00
70206;BME280;57593;55.896;37.396;2022-12-31T01:26:10;98801.22;;;3.70;100.00
70206;BME280;57593;55.896;37.396;2022-12-31T01:26:42;98802.69;;;3.63;100.00
70206;BME280;57593;55.896;37.396;2022-12-31T01:27:13;98801.75;;;3.58;100.00
70206;BME280;57593;55.896;37.396;2022-12-31T01:27:43;98794.28;;;3.66;100.00
70206;BME280;57593;55.896;37.396;2022-12-31T01:28:14;98799.44;;;3.57;100.00
70206;BME280;57593;55.896;37.396;2022-12-31T01:28:45;98795.41;;;3.51;100.00
70206;BME280;57593;55.896;37.396;2022-12-31T01:29:16;98797.22;;;3.50;100.00
70206;BME280;57593;55.896;37.396;2022-12-31T01:29:47;98795.47;;;3.59;100.00
70206;BME280;57593;55.896;37.396;2022-12-31T01:30:18;98795.00;;;3.57;100.00
70206;BME280;57593;55.896;37.396;2022-12-31T01:30:48;98799.38;;;3.48;100.00
70206;BME280;57593;55.896;37.396;2022-12-31T01:31:20;98796.88;;;3.43;100.00
70206;BME280;57593;55.896;37.396;2022-12-31T01:31:51;98796.75;;;3.48;100.00
70206;BME280;57593;55.896;37.396;2022-12-31T01:32:22;98798.38;;;3.58;100.00
70206;BME280;57593;55.896;37.396;2022-12-31T01:32:52;98802.41;;;3.64;100.00
70206;BME280;57593;55.896;37.396;2022-12-31T01:33:23;98803.13;;;3.56;100.00
70206;BME280;57593;55.896;37.396;2022-12-31T01:33:56;98800.69;;;3.59;100.00
70206;BME280;57593;55.896;37.396;2022-12-31T01:34:27;98802.41;;;3.64;100.00
70206;BME280;57593;55.896;37.396;2022-12-31T01:34:58;98802.59;;;3.68;100.00
70206;BME280;57593;55.896;37.396;2022-12-31T01:35:28;98804.41;;;3.67;100.00
70206;BME280;57593;55.896;37.396;2022-12-31T01:36:04;98804.13;;;3.69;100.00
70206;BME280;57593;55.896;37.396;2022-12-31T01:36:36;98797.38;;;3.68;100.00
70206;BME280;57593;55.896;37.396;2022-12-31T01:37:07;98806.59;;;3.74;100.00
70206;BME280;57593;55.896;37.396;2022-12-31T01:37:38;98801.69;;;3.72;100.00
70206;BME280;57593;55.896;37.396;2022-12-31T01:38:08;98806.59;;;3.74;100.00
70206;BME280;57593;55.896;37.396;2022-12-31T01:38:39;98802.16;;;3.74;100.00
70206;BME280;57593;55.896;37.396;2022-12-31T01:39:11;98801.88;;;3.76;100.00
70206;BME280;57593;55.896;37.396;2022-12-31T01:39:41;98809.41;;;3.77;100.00
70206;BME280;57593;55.896;37.396;2022-12-31T01:40:12;98808.28;;;3.70;100.00
70206;BME280;57593;55.896;37.396;2022-12-31T01:40:43;98807.09;;;3.76;100.00
70206;BME280;57593;55.896;37.396;2022-12-31T01:41:17;98810.19;;;3.78;100.00
70206;BME280;57593;55.896;37.396;2022-12-31T01:41:47;98808.63;;;3.77;100.00
70206;BME280;57593;55.896;37.396;2022-12-31T01:42:18;98798.31;;;3.72;100.00
70206;BME280;57593;55.896;37.396;2022-12-31T01:42:58;98796.34;;;3.77;100.00
70206;BME280;57593;55.896;37.396;2022-12-31T01:44:54;98801.28;;;3.56;100.00
70206;BME280;57593;55.896;37.396;2022-12-31T01:45:25;98799.09;;;3.50;100.00
70206;BME280;57593;55.896;37.396;2022-12-31T01:45:56;98800.50;;;3.56;100.00
70206;BME280;57593;55.896;37.396;2022-12-31T01:46:46;98802.34;;;3.55;100.00
70206;BME280;57593;55.896;37.396;2022-12-31T01:47:24;98804.69;;;3.57;100.00
70206;BME280;57593;55.896;37.396;2022-12-31T01:47:58;98809.78;;;3.62;100.00
70206;BME280;57593;55.896;37.396;2022-12-31T01:48:29;98810.81;;;3.61;100.00
70206;BME280;57593;55.896;37.396;2022-12-31T01:49:57;98799.09;;;3.50;100.00
70206;BME280;57593;55.896;37.396;2022-12-31T01:50:30;98796.88;;;3.43;100.00
70206;BME280;57593;55.896;37.396;2022-12-31T01:51:04;98806.44;;;3.48;100.00
70206;BME280;57593;55.896;37.396;2022-12-31T01:51:36;98815.47;;;3.41;100.00
70206;BME280;57593;55.896;37.396;2022-12-31T01:52:49;98803.97;;;3.29;100.00
70206;BME280;57593;55.896;37.396;2022-12-31T01:53:21;98803.16;;;3.42;100.00
70206;BME280;57593;55.896;37.396;2022-12-31T01:53:52;98814.03;;;3.35;100.00
70206;BME280;57593;55.896;37.396;2022-12-31T01:54:24;98804.75;;;3.29;100.00
70206;BME280;57593;55.896;37.396;2022-12-31T01:55:39;98810.44;;;3.31;100.00
70206;BME280;57593;55.896;37.396;2022-12-31T01:56:12;98810.91;;;3.33;100.00
70206;BME280;57593;55.896;37.396;2022-12-31T01:56:46;98804.75;;;3.29;100.00
70206;BME280;57593;55.896;37.396;2022-12-31T01:57:17;98803.28;;;3.37;100.00
70206;BME280;57593;55.896;37.396;2022-12-31T01:57:51;98795.97;;;3.25;100.00
70206;BME280;57593;55.896;37.396;2022-12-31T01:58:26;98804.47;;;3.31;100.00
70206;BME280;57593;55.896;37.396;2022-12-31T01:58:58;98807.16;;;3.26;100.00
70206;BME280;57593;55.896;37.396;2022-12-31T01:59:30;98807.97;;;3.26;100.00
70206;BME280;57593;55.896;37.396;2022-12-31T02:00:03;98801.00;;;3.21;100.00
70206;BME280;57593;55.896;37.396;2022-12-31T02:00:35;98795.97;;;3.25;100.00
70206;BME280;57593;55.896;37.396;2022-12-31T02:01:07;98798.66;;;3.34;100.00
70206;BME280;57593;55.896;37.396;2022-12-31T02:01:39;98802.31;;;3.33;100.00
70206;BME280;57593;55.896;37.396;2022-12-31T02:02:11;98800.72;;;3.46;100.00
70206;BME280;57593;55.896;37.396;2022-12-31T02:02:42;98808.94;;;3.53;100.00
70206;BME280;57593;55.896;37.396;2022-12-31T02:03:13;98809.66;;;3.45;100.00
70206;BME280;57593;55.896;37.396;2022-12-31T02:03:44;98808.38;;;3.42;100.00
70206;BME280;57593;55.896;37.396;2022-12-31T02:04:15;98805.78;;;3.42;100.00
70206;BME280;57593;55.896;37.396;2022-12-31T02:04:46;98810.91;;;3.33;100.00
70206;BME280;57593;55.896;37.396;2022-12-31T02:06:20;98801.63;;;3.41;100.00
70206;BME280;57593;55.896;37.396;2022-12-31T02:07:01;98806.66;;;3.37;100.00
70206;BME280;57593;55.896;37.396;2022-12-31T02:07:32;98800.84;;;3.40;100.00
70206;BME280;57593;55.896;37.396;2022-12-31T02:08:04;98808.50;;;3.37;100.00
70206;BME280;57593;55.896;37.396;2022-12-31T02:08:36;98806.19;;;3.35;100.00
70206;BME280;57593;55.896;37.396;2022-12-31T02:09:07;98805.09;;;3.36;100.00
70206;BME280;57593;55.896;37.396;2022-12-31T02:09:39;98805.78;;;3.42;100.00
70206;BME280;57593;55.896;37.396;2022-12-31T02:10:12;98804.44;;;3.45;100.00
70206;BME280;57593;55.896;37.396;2022-12-31T02:10:43;98801.53;;;3.46;100.00
70206;BME280;57593;55.896;37.396;2022-12-31T02:11:29;98816.09;;;3.24;100.00
70206;BME280;57593;55.896;37.396;2022-12-31T02:12:00;98811.13;;;3.37;100.00
70206;BME280;57593;55.896;37.396;2022-12-31T02:12:31;98810.72;;;3.44;100.00
70206;BME280;57593;55.896;37.396;2022-12-31T02:13:02;98805.19;;;3.45;100.00
70206;BME280;57593;55.896;37.396;2022-12-31T02:13:33;98803.53;;;3.49;100.00
70206;BME280;57593;55.896;37.396;2022-12-31T02:14:12;98805.66;;;3.47;100.00
70206;BME280;57593;55.896;37.396;2022-12-31T02:14:47;98803.53;;;3.49;100.00
70206;BME280;57593;55.896;37.396;2022-12-31T02:15:22;98804.72;;;3.43;100.00
70206;BME280;57593;55.896;37.396;2022-12-31T02:16:09;98805.94;;;3.23;100.00
70206;BME280;57593;55.896;37.396;2022-12-31T02:16:53;98802.03;;;3.34;100.00
70206;BME280;57593;55.896;37.396;2022-12-31T02:17:47;98805.53;;;3.30;100.00
70206;BME280;57593;55.896;37.396;2022-12-31T02:18:33;98809.41;;;3.32;100.00
70206;BME280;57593;55.896;37.396;2022-12-31T02:25:07;98818.00;;;2.82;100.00
70206;BME280;57593;55.896;37.396;2022-12-31T02:26:36;98812.78;;;2.68;100.00
70206;BME280;57593;55.896;37.396;2022-12-31T02:30:12;98819.16;;;2.62;100.00
70206;BME280;57593;55.896;37.396;2022-12-31T02:30:51;98817.81;;;2.51;100.00
70206;BME280;57593;55.896;37.396;2022-12-31T02:31:37;98819.72;;;2.73;100.00
70206;BME280;57593;55.896;37.396;2022-12-31T02:32:15;98818.41;;;2.62;100.00
70206;BME280;57593;55.896;37.396;2022-12-31T02:33:03;98821.25;;;2.74;100.00
70206;BME280;57593;55.896;37.396;2022-12-31T02:33:49;98826.19;;;2.90;100.00
70206;BME280;57593;55.896;37.396;2022-12-31T02:35:07;98826.28;;;2.98;100.00
70206;BME280;57593;55.896;37.396;2022-12-31T02:36:00;98827.53;;;3.01;100.00
70206;BME280;57593;55.896;37.396;2022-12-31T02:36:36;98828.72;;;2.95;100.00
70206;BME280;57593;55.896;37.396;2022-12-31T02:37:11;98823.84;;;3.02;100.00
70206;BME280;57593;55.896;37.396;2022-12-31T02:37:44;98823.25;;;3.05;100.00
70206;BME280;57593;55.896;37.396;2022-12-31T02:38:24;98819.72;;;3.01;100.00
70206;BME280;57593;55.896;37.396;2022-12-31T02:38:56;98824.63;;;3.02;100.00
70206;BME280;57593;55.896;37.396;2022-12-31T02:39:28;98823.94;;;3.11;100.00
70206;BME280;57593;55.896;37.396;2022-12-31T02:39:59;98828.00;;;3.17;100.00
70206;BME280;57593;55.896;37.396;2022-12-31T02:40:33;98824.78;;;3.20;100.00
70206;BME280;57593;55.896;37.396;2022-12-31T02:41:03;98825.09;;;3.18;100.00
70206;BME280;57593;55.896;37.396;2022-12-31T02:41:34;98828.25;;;3.29;100.00
70206;BME280;57593;55.896;37.396;2022-12-31T02:42:20;98819.28;;;3.21;100.00
70206;BME280;57593;55.896;37.396;2022-12-31T02:42:51;98820.06;;;3.08;100.00
70206;BME280;57593;55.896;37.396;2022-12-31T02:43:23;98826.53;;;3.24;100.00
70206;BME280;57593;55.896;37.396;2022-12-31T02:43:55;98826.41;;;3.30;100.00
70206;BME280;57593;55.896;37.396;2022-12-31T02:44:32;98832.38;;;3.30;100.00
70206;BME280;57593;55.896;37.396;2022-12-31T02:45:04;98829.31;;;3.28;100.00
70206;BME280;57593;55.896;37.396;2022-12-31T02:45:38;98821.78;;;3.27;100.00
70206;BME280;57593;55.896;37.396;2022-12-31T02:46:24;98834.81;;;3.27;100.00
70206;BME280;57593;55.896;37.396;2022-12-31T02:47:51;98825.66;;;3.29;100.00
70206;BME280;57593;55.896;37.396;2022-12-31T02:48:36;98832.97;;;3.27;100.00
70206;BME280;57593;55.896;37.396;2022-12-31T02:49:15;98821.78;;;3.27;100.00
70206;BME280;57593;55.896;37.396;2022-12-31T02:50:02;98826.03;;;3.22;100.00
70206;BME280;57593;55.896;37.396;2022-12-31T02:50:42;98822.78;;;3.03;100.00
70206;BME280;57593;55.896;37.396;2022-12-31T02:51:39;98817.09;;;3.01;100.00
70206;BME280;57593;55.896;37.396;2022-12-31T02:57:39;98827.72;;;2.91;100.00
70206;BME280;57593;55.896;37.396;2022-12-31T02:59:27;98828.72;;;2.95;100.00
70206;BME280;57593;55.896;37.396;2022-12-31T03:00:19;98829.00;;;2.93;100.00
70206;BME280;57593;55.896;37.396;2022-12-31T03:01:08;98835.16;;;2.97;100.00
70206;BME280;57593;55.896;37.396;2022-12-31T03:02:05;98831.41;;;2.90;100.00
70206;BME280;57593;55.896;37.396;2022-12-31T03:02:46;98827.34;;;2.83;100.00
70206;BME280;57593;55.896;37.396;2022-12-31T03:03:19;98832.25;;;2.85;100.00
70206;BME280;57593;55.896;37.396;2022-12-31T03:03:50;98826.88;;;2.81;100.00
70206;BME280;57593;55.896;37.396;2022-12-31T03:04:54;98835.97;;;2.70;100.00
70206;BME280;57593;55.896;37.396;2022-12-31T03:05:28;98831.22;;;2.72;100.00
70206;BME280;57593;55.896;37.396;2022-12-31T03:06:02;98831.41;;;2.76;100.00
70206;BME280;57593;55.896;37.396;2022-12-31T03:06:33;98832.66;;;2.78;100.00
70206;BME280;57593;55.896;37.396;2022-12-31T03:07:28;98830.16;;;2.73;100.00
70206;BME280;57593;55.896;37.396;2022-12-31T03:07:57;98836.16;;;2.74;100.00
70206;BME280;57593;55.896;37.396;2022-12-31T03:08:27;98829.59;;;2.76;100.00
70206;BME280;57593;55.896;37.396;2022-12-31T03:09:04;98826.88;;;2.81;100.00
70206;BME280;57593;55.896;37.396;2022-12-31T03:09:47;98831.41;;;2.76;100.00
70206;BME280;57593;55.896;37.396;2022-12-31T03:10:17;98837.13;;;2.78;100.00
70206;BME280;57593;55.896;37.396;2022-12-31T03:10:48;98836.84;;;2.79;100.00
70206;BME280;57593;55.896;37.396;2022-12-31T03:11:19;98835.97;;;2.84;100.00
70206;BME280;57593;55.896;37.396;2022-12-31T03:12:11;98835.97;;;2.84;100.00
70206;BME280;57593;55.896;37.396;2022-12-31T03:13:01;98840.31;;;2.88;100.00
70206;BME280;57593;55.896;37.396;2022-12-31T03:13:32;98835.97;;;2.84;100.00
70206;BME280;57593;55.896;37.396;2022-12-31T03:14:03;98836.53;;;2.81;100.00
70206;BME280;57593;55.896;37.396;2022-12-31T03:14:33;98830.44;;;2.85;100.00
70206;BME280;57593;55.896;37.396;2022-12-31T03:15:05;98829.94;;;2.83;100.00
70206;BME280;57593;55.896;37.396;2022-12-31T03:15:36;98840.59;;;2.87;100.00
70206;BME280;57593;55.896;37.396;2022-12-31T03:16:08;98836.63;;;2.76;100.00
70206;BME280;57593;55.896;37.396;2022-12-31T03:16:38;98831.03;;;2.82;100.00
70206;BME280;57593;55.896;37.396;2022-12-31T03:17:09;98831.63;;;2.79;100.00